Terminal Aerodrome Forecast
Issued by NWS

Home | Current Version | Previous Version | Text Only | Print | Product List | Glossary On
Versions: 1 2 3 4 5 6 7 8 9 10 11 12 13 14 15 16
000
FTUS44 KJAN 242123 AAA
TAFGTR
TAF AMD
KGTR 242123Z 2421/2518 07006KT P6SM VCTS BKN030CB
     FM250000 20003KT P6SM FEW030 SCT250
     FM250900 00000KT 4SM BR OVC008
     FM251400 25003KT P6SM BKN015=

USA.gov is the U.S. government's official web portal to all federal, state and local government web resources and services.